Rachel Hailey — WDI3553 — position and weather

sailwx.info

Track history (hours):
 
Tides and Currents Weather Stations Pressure Air Temp Water Temp Dewpoint Dewpoint Depression Visibility Wind Speed Wind Dir Waves Ship Positions

Rachel Hailey

Owner: F/V Natalie Felicia, LLC, West Creek, NJ. More information available from US FCC via Universal Licensing System and Coast Guard Vessel Documentation Center.

Last reported at 2017-Sep-25 17:27 UTC. Time now 2017-Nov-18 06:23 UTC.
Position N 34°48' W 076°41'.
Warning: this ship's position is 53 days out of date.

Length 23 m.

Type: Fishing. MMSI: 367689520.

Date/timePositionNaut miles runAvg speedWind from/ knotsBaromVisibWave heightAir tempDewpointWater temp
2017-Sep-25 17:27N 34°48' W 076°41'2 5.3
2017-Sep-25 17:00N 34°46' W 076°41'3 6.2
2017-Sep-25 16:30N 34°43' W 076°42'4 7.5
2017-Sep-25 16:00N 34°39' W 076°40'4 7.8
2017-Sep-25 15:30N 34°36' W 076°39'4 8.2
2017-Sep-25 15:00N 34°32' W 076°37'144 6.3
2017-Sep-24 16:10N 36°51' W 075°52'210.0
2017-Sep-24 15:59N 36°53' W 075°53'19 8.4
2017-Sep-24 13:42N 37°09' W 075°40'2 8.4
2017-Sep-24 13:30N 37°11' W 075°39'4 8.5
2017-Sep-24 13:00N 37°14' W 075°36'4 8.5
2017-Sep-24 12:30N 37°18' W 075°33'13 8.5
2017-Sep-24 11:00N 37°29' W 075°24'4 8.4
2017-Sep-24 10:29N 37°32' W 075°21'4 8.6
2017-Sep-24 09:59N 37°35' W 075°17'7 8.6
2017-Sep-24 09:07N 37°40' W 075°11'1 8.5
2017-Sep-24 09:00N 37°41' W 075°10'4 8.6
2017-Sep-24 08:28N 37°45' W 075°07'4 8.8
2017-Sep-24 08:00N 37°49' W 075°05'4 8.6
2017-Sep-24 07:30N 37°53' W 075°02'4 8.4
2017-Sep-24 07:00N 37°57' W 075°00'4 8.2
2017-Sep-24 06:30N 38°01' W 075°01'4 7.8
2017-Sep-24 05:58N 38°05' W 075°02'4 8.3
2017-Sep-24 05:30N 38°08' W 075°00'4 8.3
2017-Sep-24 05:00N 38°12' W 074°59'4 8.3
2017-Sep-24 04:30N 38°16' W 074°58'4 8.4
2017-Sep-24 04:00N 38°20' W 074°57'7 8.2
2017-Sep-24 03:09N 38°27' W 074°57'1 8.3
2017-Sep-24 03:00N 38°28' W 074°57'4 8.3
2017-Sep-24 02:30N 38°33' W 074°57'6 8.1
2017-Sep-24 01:49N 38°38' W 074°57'3 8.4
2017-Sep-24 01:29N 38°41' W 074°56'6 8.6
2017-Sep-24 00:48N 38°46' W 074°52'  
Track history (hours):
 
Tides and Currents Weather Stations Pressure Air Temp Water Temp Dewpoint Dewpoint Depression Visibility Wind Speed Wind Dir Waves Ship Positions

Rachel Hailey

Owner: F/V Natalie Felicia, LLC, West Creek, NJ. More information available from US FCC via Universal Licensing System and Coast Guard Vessel Documentation Center.

Last reported at 2017-Sep-25 17:27 UTC. Time now 2017-Nov-18 06:23 UTC.
Position N 34°48' W 076°41'.
Warning: this ship's position is 53 days out of date.

Length 23 m.

Type: Fishing. MMSI: 367689520.

Date/timePositionNaut miles runAvg speedWind from/ knotsBaromVisibWave heightAir tempDewpointWater temp
2017-Sep-25 17:27N 34°48' W 076°41'2 5.3
2017-Sep-25 17:00N 34°46' W 076°41'3 6.2
2017-Sep-25 16:30N 34°43' W 076°42'4 7.5
2017-Sep-25 16:00N 34°39' W 076°40'4 7.8
2017-Sep-25 15:30N 34°36' W 076°39'4 8.2
2017-Sep-25 15:00N 34°32' W 076°37'144 6.3
2017-Sep-24 16:10N 36°51' W 075°52'210.0
2017-Sep-24 15:59N 36°53' W 075°53'19 8.4
2017-Sep-24 13:42N 37°09' W 075°40'2 8.4
2017-Sep-24 13:30N 37°11' W 075°39'4 8.5
2017-Sep-24 13:00N 37°14' W 075°36'4 8.5
2017-Sep-24 12:30N 37°18' W 075°33'13 8.5
2017-Sep-24 11:00N 37°29' W 075°24'4 8.4
2017-Sep-24 10:29N 37°32' W 075°21'4 8.6
2017-Sep-24 09:59N 37°35' W 075°17'7 8.6
2017-Sep-24 09:07N 37°40' W 075°11'1 8.5
2017-Sep-24 09:00N 37°41' W 075°10'4 8.6
2017-Sep-24 08:28N 37°45' W 075°07'4 8.8
2017-Sep-24 08:00N 37°49' W 075°05'4 8.6
2017-Sep-24 07:30N 37°53' W 075°02'4 8.4
2017-Sep-24 07:00N 37°57' W 075°00'4 8.2
2017-Sep-24 06:30N 38°01' W 075°01'4 7.8
2017-Sep-24 05:58N 38°05' W 075°02'4 8.3
2017-Sep-24 05:30N 38°08' W 075°00'4 8.3
2017-Sep-24 05:00N 38°12' W 074°59'4 8.3
2017-Sep-24 04:30N 38°16' W 074°58'4 8.4
2017-Sep-24 04:00N 38°20' W 074°57'7 8.2
2017-Sep-24 03:09N 38°27' W 074°57'1 8.3
2017-Sep-24 03:00N 38°28' W 074°57'4 8.3
2017-Sep-24 02:30N 38°33' W 074°57'6 8.1
2017-Sep-24 01:49N 38°38' W 074°57'3 8.4
2017-Sep-24 01:29N 38°41' W 074°56'6 8.6
2017-Sep-24 00:48N 38°46' W 074°52'  

Dump ship's entire track history